Tiempo atmosférico en la estación meteorológica de Agulo, Santa Cruz de Tenerife (765 m.)



Fecha
DESCASC
Temp. máxima en grados centígrados (hora)
DESCASC
Temp. mínima en grados centígrados (hora)
DESCASC
Temp. media en grados centígrados
DESCASC
Racha de viento máxima en m/sg (hora)
DESCASC
Velocidad máxima media en intervalos de 10 minutos(hora)
DESCASC
Precipitaciones diarias en mm
DESCASC
Precipitaciones de 00:00 a 06:00 en mm
DESCASC
Precipitaciones de 06:00 a 12:00 en mm
DESCASC
Precipitaciones de 12:00 a 18:00 en mm
DESCASC
Precipitaciones de 18:00 a 24:00 en mm
DESCASC
06-01-2021 18.1 (16:20) 14.2 (00:00) 16.2 20.83 (10:20) 12.5 (11:50) 13.4 0.8 11.6 0 1
07-01-2021 16.8 (12:40) 12.9 (00:00) 14.8 25.28 (15:00) 15.28 (14:20) 24.4 5.8 8.4 2 8.2
09-01-2021 10.5 (13:50) 7.9 (00:00) 9.2 13.61 (10:00) 4.17 (11:40) 4.6 0 2.6 2 0
10-01-2021 12.5 (11:50) 8.4 (00:50) 10.4 13.33 (19:10) 4.72 (20:20) 2.6 0 1.2 1.2 0.2
22-01-2021 15.3 (10:20) 12.7 (00:00) 14 6.11 (16:10) 2.78 (09:40) 2.8 2 0.8 0 0
08-01-2021 13.1 (00:20) 9 (00:00) 11.1 22.5 (01:50) 12.78 (00:30) 12.2 8.4 0.6 2 1.2
03-01-2021 15.4 (14:20) 10.2 (00:00) 12.8 8.61 (23:50) 6.39 (23:59) 0.4 0 0.4 0 0
23-01-2021 19.7 (13:40) 11.4 (00:00) 15.6 5.28 (22:50) 3.89 (23:00) 1.4 1.2 0.2 0 0
16-01-2021 16.5 (14:00) 9.8 (00:00) 13.2 8.33 (19:20) 4.17 (10:30) 0 0 0 0 0
12-01-2021 14.1 (14:10) 8.9 (00:00) 11.5 6.94 (01:20) 3.06 (01:20) 0 0 0 0 0
17-01-2021 17 (11:40) 9.5 (00:00) 13.3 5.83 (03:40) 2.78 (08:50) 0 0 0 0 0
18-01-2021 17.9 (15:00) 8.5 (00:00) 13.2 5 (10:20) 2.78 (10:20) 0 0 0 0 0
19-01-2021 18.2 (13:30) 8.3 (00:00) 13.3 7.22 (23:59) 5 (23:59) 0 0 0 0 0
20-01-2021 18 (13:40) 8.3 (00:00) 13.2 7.78 (05:50) 5.28 (05:50) 0 0 0 0 0
21-01-2021 21.3 (13:50) 10.6 (00:00) 15.9 5 (13:00) 3.06 (07:30) 1.8 0 0 0 1.8
24-01-2021 22.9 (14:20) 11 (00:00) 16.9 5.83 (07:00) 4.17 (06:50) 0 0 0 0 0
25-01-2021 20 (12:20) 12 (00:00) 16 5 (21:50) 2.5 (06:20) 0 0 0 0 0
26-01-2021 14.6 (13:10) 10.8 (00:00) 12.7 6.39 (12:00) 2.5 (11:20) 0 0 0 0 0
15-01-2021 13 (13:30) 9.4 (00:00) 11.2 9.72 (04:50) 4.17 (05:30) 0 0 0 0 0
14-01-2021 13.5 (17:30) 9.4 (05:30) 11.4 7.22 (21:40) 3.33 (22:40) 0 0 0 0 0
13-01-2021 11.6 (14:30) 9.6 (00:00) 10.6 8.61 (04:10) 3.89 (14:10) 0 0 0 0 0
28-12-2020 19.9 (14:30) 11 (00:00) 15.4 5.83 (08:10) 4.17 (08:10) 0 0 0 0 0
11-01-2021 14.1 (14:00) 8.6 (00:00) 11.4 11.67 (00:10) 3.33 (00:10) 0.2 0.2 0 0 0
05-01-2021 19.7 (13:10) 13.6 (00:00) 16.7 11.39 (20:10) 8.06 (20:10) 0.6 0 0 0.6 0
04-01-2021 20.1 (11:40) 12.2 (00:00) 16.2 18.33 (17:30) 10 (19:00) 0 0 0 0 0
02-01-2021 14.5 (15:00) 9.9 (00:00) 12.2 5.56 (06:10) 3.06 (20:40) 0 0 0 0 0
01-01-2021 13.9 (12:10) 10.1 (00:00) 12 8.33 (19:40) 3.33 (20:30) 0 0 0 0 0
31-12-2020 16.7 (16:10) 11.1 (00:00) 13.9 7.5 (22:40) 2.5 (23:50) 0 0 0 0 0
30-12-2020 16.1 (13:00) 10.7 (00:00) 13.4 4.17 (09:10) 2.22 (21:00) 0 0 0 0 0
29-12-2020 17.8 (11:00) 11.3 (00:00) 14.5 6.11 (03:00) 2.78 (03:00) 0.2 0 0 0 0.2

Gráficas

Temp. máximas Temp. mínimas Temp. medias Precipitaciones Rachas de viento máximas Velocidades máximas media en intervalos de 10 minutos

Datos horarios

Fecha y hora oficial Temperatura (ºC) Velocidad del viento (km/h) Dirección del viento Racha (km/h) Dirección de racha Precipitación (mm) Presión (hPa) Tendencia (hPa) Humedad (%)
2021-01-26 23:00:00 12.4 4 Sudeste 13 Nordeste 0 -- -- 100
2021-01-26 22:00:00 12.5 3 Nordeste 15 Nordeste 0 -- -- 100
2021-01-26 21:00:00 12.8 4 Nordeste 15 Nordeste 0 -- -- 100
2021-01-26 20:00:00 12.8 5 Nordeste 16 Sudeste 0 -- -- 100
2021-01-26 19:00:00 12.9 4 Nordeste 10 Este 0 -- -- 99
2021-01-26 18:00:00 13 4 Este 16 Norte 0 -- -- 99
2021-01-26 17:00:00 13.3 6 Este 16 Este 0 -- -- 97
2021-01-26 16:00:00 13.9 4 Nordeste 14 Nordeste 0 -- -- 96
2021-01-26 15:00:00 13.9 5 Este 12 Noroeste 0 -- -- 93
2021-01-26 14:00:00 14 3 Este 12 Sudeste 0 -- -- 92
2021-01-26 13:00:00 13.9 4 Sudeste 15 Sudeste 0 -- -- 94
2021-01-26 12:00:00 13.8 7 Sudeste 23 Este 0 -- -- 97
2021-01-26 11:00:00 13 6 Sudeste 19 Nordeste 0 -- -- 99
2021-01-26 10:00:00 12.6 4 Sudoeste 13 Norte 0 -- -- 99
2021-01-26 09:00:00 11.5 5 Sudeste 13 Sudeste 0 -- -- 100
2021-01-26 08:00:00 11.4 5 Sudeste 11 Nordeste 0 -- -- 100
2021-01-26 07:00:00 11.2 5 Sudoeste 10 Sudoeste 0 -- -- 99
2021-01-26 06:00:00 11.2 3 Sur 13 Nordeste 0 -- -- 100
2021-01-26 05:00:00 11.4 3 Sur 14 Sudeste 0 -- -- 99
2021-01-26 04:00:00 11.4 3 Sur 10 Este 0 -- -- 98
2021-01-26 03:00:00 11.2 2 Sudoeste 13 Nordeste 0 -- -- 98
2021-01-26 02:00:00 11.7 4 Este 11 Sudeste 0 -- -- 99
2021-01-26 01:00:00 11.9 5 Sudeste 12 Este 0 -- -- 99
2021-01-26 00:00:00 12.2 4 Sudeste 16 Sudeste 0 -- -- 98
2021-01-25 23:00:00 12.5 4 Sudeste 15 Sudeste 0 -- -- 98
2021-01-25 22:00:00 12.8 6 Sudeste 18 Sudeste 0 -- -- 98
2021-01-25 21:00:00 12.6 3 Sur 12 Sudeste 0 -- -- 96
2021-01-25 20:00:00 12.8 4 Sudeste 13 Este 0 -- -- 96
2021-01-25 19:00:00 12.7 4 Norte 10 Nordeste 0 -- -- 95
2021-01-25 18:00:00 13.5 3 Sudeste 12 Norte 0 -- -- 93
2021-01-25 17:00:00 14.9 4 Norte 11 Nordeste 0 -- -- 90
2021-01-25 16:00:00 18.5 5 Sur 13 Sur 0 -- -- 76
2021-01-25 15:00:00 18.1 7 Sur 13 Sur 0 -- -- 79
2021-01-25 14:00:00 18.4 7 Sur 13 Sur 0 -- -- 75
2021-01-25 13:00:00 18.4 8 Sur 14 Sur 0 -- -- 79
2021-01-25 12:00:00 19.2 7 Sur 13 Sur 0 -- -- 75
2021-01-25 11:00:00 17.6 7 Sur 13 Sur 0 -- -- 78
2021-01-25 10:00:00 18.3 3 Sur 7 Este 0 -- -- 65
2021-01-25 09:00:00 12.8 4 Nordeste 10 Nordeste 0 -- -- 98
2021-01-25 08:00:00 12 6 Nordeste 10 Nordeste 0 -- -- 94
2021-01-25 07:00:00 13.6 6 Norte 11 Norte 0 -- -- 64
2021-01-25 06:00:00 15.1 3 Noroeste 10 Nordeste 0 -- -- 53
2021-01-25 05:00:00 16 8 Este 12 Nordeste 0 -- -- 49
2021-01-25 04:00:00 15.3 4 Sudoeste 9 Norte 0 -- -- 50
2021-01-25 03:00:00 15.3 5 Noroeste 10 Norte 0 -- -- 49
2021-01-25 02:00:00 14.6 7 Norte 10 Norte 0 -- -- 57
2021-01-25 01:00:00 15.6 6 Norte 10 Norte 0 -- -- 51
2021-01-25 00:00:00 14.4 8 Noroeste 10 Noroeste 0 -- -- 66
2021-01-24 23:00:00 13.4 6 Norte 9 Norte 0 -- -- 70
2021-01-24 22:00:00 13.4 7 Norte 11 Norte 0 -- -- 70
2021-01-24 21:00:00 13.6 8 Norte 12 Norte 0 -- -- 68
2021-01-24 20:00:00 14.2 5 Nordeste 9 Nordeste 0 -- -- 68
2021-01-24 19:00:00 14.5 6 Sudoeste 12 Norte 0 -- -- 87
2021-01-24 18:00:00 17.6 5 Norte 8 Norte 0 -- -- 77
2021-01-24 17:00:00 19.4 3 Sur 8 Noroeste 0 -- -- 73
2021-01-24 16:00:00 19.9 3 Sudeste 13 Sur 0 -- -- 73
2021-01-24 15:00:00 20.6 6 Norte 13 Norte 0 -- -- 53
2021-01-24 14:00:00 22.1 4 Oeste 10 Norte 0 -- -- 47
2021-01-24 13:00:00 21.4 5 Norte 11 Norte 0 -- -- 40
2021-01-24 12:00:00 21.9 5 Norte 16 Norte 0 -- -- 45
2021-01-24 11:00:00 20.5 8 Norte 13 Norte 0 -- -- 49
2021-01-24 10:00:00 19.6 6 Sudoeste 21 Norte 0 -- -- 45
2021-01-24 09:00:00 14.8 8 Norte 17 Norte 0 -- -- 68
2021-01-24 08:00:00 15.6 13 Noroeste 19 Noroeste 0 -- -- 54
2021-01-24 07:00:00 15.9 14 Sudoeste 21 Sur 0 -- -- 51
2021-01-24 06:00:00 12.4 4 Sur 16 Norte 0 -- -- 90
2021-01-24 05:00:00 13.2 10 Sur 18 Sur 0 -- -- 78
2021-01-24 04:00:00 15.3 10 Sur 17 Sur 0 -- -- 55
2021-01-24 03:00:00 11.7 9 Norte 12 Norte 0 -- -- 94
2021-01-24 02:00:00 13.6 5 Norte 10 Noroeste 0 -- -- 75
2021-01-24 01:00:00 13.1 6 Sudeste 17 Sudoeste 0 -- -- 75
2021-01-24 00:00:00 11.6 10 Sudoeste 16 Sur 0 -- -- 99
2021-01-23 23:00:00 12.6 14 Norte 19 Norte 0 -- -- 100
2021-01-23 22:00:00 12.6 2 Oeste 12 Nordeste 0 -- -- 100
2021-01-23 21:00:00 13.1 2 Este 13 Nordeste 0 -- -- 100
2021-01-23 20:00:00 13.1 3 Sudeste 9 Sudeste 0 -- -- 99
2021-01-23 19:00:00 13.5 3 Norte 10 Nordeste 0 -- -- 99
2021-01-23 18:00:00 13.9 5 Norte 10 Sudeste 0 -- -- 96
2021-01-23 17:00:00 14.7 4 Norte 9 Norte 0 -- -- 94
2021-01-23 16:00:00 15.6 5 Norte 10 Norte 0 -- -- 87
2021-01-23 15:00:00 18.4 3 Sudeste 11 Sudeste 0 -- -- 85
2021-01-23 14:00:00 18.2 5 Sur 12 Sur 0 -- -- 82
2021-01-23 13:00:00 19.4 8 Sur 13 Sudeste 0 -- -- 94
2021-01-23 12:00:00 19.1 5 Sudeste 13 Sur 0 -- -- 99
2021-01-23 11:00:00 15.1 5 Norte 10 Norte 0 -- -- 100
2021-01-23 10:00:00 13.6 4 Sudoeste 10 Oeste 0 -- -- 100
2021-01-23 09:00:00 12.3 6 Sudoeste 13 Sudoeste 0 -- -- 100
2021-01-23 08:00:00 11.7 7 Sudoeste 14 Sudoeste 0 -- -- 100
2021-01-23 07:00:00 12.3 3 Sudoeste 10 Sudoeste 0.2 -- -- 100
2021-01-23 06:00:00 13.3 2 Oeste 6 Noroeste 0.2 -- -- 100
2021-01-23 05:00:00 13.1 3 Sur 9 Sudoeste 0.2 -- -- 100
2021-01-23 04:00:00 13.6 4 Este 8 Sur 0.2 -- -- 100
2021-01-23 03:00:00 13.6 3 Sur 9 Sudeste 0.4 -- -- 100
2021-01-23 02:00:00 13.6 4 Sudeste 13 Sur 0 -- -- 100
2021-01-23 01:00:00 13.7 5 Sudeste 10 Sudeste 0.2 -- -- 100
2021-01-23 00:00:00 13.5 5 Sudeste 14 Sudeste 0 -- -- 100
2021-01-22 23:00:00 13.3 5 Este 15 Sudeste 0 -- -- 100
2021-01-22 22:00:00 13.3 5 Sur 12 Sudeste 0 -- -- 100
2021-01-22 21:00:00 13.4 6 Sudeste 12 Sudeste 0 -- -- 100
2021-01-22 20:00:00 13.2 4 Sudeste 13 Sudeste 0 -- -- 100
2021-01-22 19:00:00 13.3 3 Sudeste 12 Sudeste 0 -- -- 100
2021-01-22 18:00:00 13.6 4 Sur 15 Sudeste 0 -- -- 100
2021-01-22 17:00:00 14.1 6 Sudeste 22 Sudeste 0 -- -- 100
2021-01-22 16:00:00 14 6 Sudeste 20 Sudeste 0 -- -- 100
2021-01-22 15:00:00 14 5 Sudeste 16 Sudeste 0 -- -- 100
2021-01-22 14:00:00 14.4 7 Sudeste 15 Sudeste 0 -- -- 100
2021-01-22 13:00:00 14.7 6 Sudeste 13 Sudeste 0 -- -- 98
2021-01-22 12:00:00 14.2 4 Este 15 Sudeste 0 -- -- 100
2021-01-22 11:00:00 14.2 6 Sudeste 15 Sudeste 0 -- -- 100
2021-01-22 10:00:00 14.5 5 Norte 18 Norte 0 -- -- 100
2021-01-22 09:00:00 13.1 3 Sudeste 10 Sudeste 0 -- -- 100
2021-01-22 08:00:00 12.9 3 Sudeste 15 Sudeste 0.2 -- -- 100
2021-01-22 07:00:00 13.2 4 Este 10 Sudeste 0.6 -- -- 100
2021-01-22 06:00:00 13.1 3 Sudeste 14 Este 0 -- -- 100
2021-01-22 05:00:00 13.6 3 Nordeste 10 Norte 0 -- -- 100
2021-01-22 04:00:00 13.1 4 Nordeste 14 Sudoeste 0 -- -- 100
2021-01-22 03:00:00 13.1 6 Sur 14 Sudoeste 0.2 -- -- 100
2021-01-22 02:00:00 13.6 8 Sudeste 13 Sudeste 0.2 -- -- 100
2021-01-22 01:00:00 13.7 4 Sudeste 10 Este 1.6 -- -- 100
2021-01-22 00:00:00 14 4 Sudeste 15 Sudeste 1.2 -- -- 100
2021-01-21 23:00:00 13.8 3 Sudoeste 13 Este 0.6 -- -- 99
2021-01-21 22:00:00 13.5 2 Sudoeste 11 Nordeste 0 -- -- 98
2021-01-21 21:00:00 12.9 4 Este 8 Este 0 -- -- 97
2021-01-21 20:00:00 12.6 3 Sur 6 Nordeste 0 -- -- 96
2021-01-21 19:00:00 13.4 6 Nordeste 9 Sur 0 -- -- 93
2021-01-21 18:00:00 17.1 5 Sudeste 13 Sur 0 -- -- 80
2021-01-21 17:00:00 18.2 8 Sur 15 Sur 0 -- -- 77
2021-01-21 16:00:00 19.4 8 Sur 16 Sur 0 -- -- 75
2021-01-21 15:00:00 20.8 8 Sur 17 Sur 0 -- -- 70
2021-01-21 14:00:00 21.1 8 Sur 17 Sur 0 -- -- 54
2021-01-21 13:00:00 20.3 9 Sur 18 Sur 0 -- -- 46
2021-01-21 12:00:00 19.6 10 Sur 17 Sur 0 -- -- 60
2021-01-21 11:00:00 17.7 4 Sudeste 10 Sudeste 0 -- -- 63
2021-01-21 10:00:00 16.2 5 Nordeste 10 Este 0 -- -- 68
2021-01-21 09:00:00 13.3 5 Norte 12 Norte 0 -- -- 92
2021-01-21 08:00:00 11.5 4 Noroeste 14 Este 0 -- -- 97
2021-01-21 07:00:00 11.1 2 Nordeste 7 Sur 0 -- -- 95
2021-01-21 06:00:00 12.7 6 Oeste 10 Sudoeste 0 -- -- 86
2021-01-21 05:00:00 12.9 5 Sudoeste 10 Sudoeste 0 -- -- 94
2021-01-21 04:00:00 10.9 3 Sudeste 9 Este 0 -- -- 98
2021-01-21 03:00:00 11.1 6 Sudeste 12 Sudoeste 0 -- -- 95
2021-01-21 02:00:00 11 4 Sur 10 Sudoeste 0 -- -- 99
2021-01-21 01:00:00 11.1 5 Sur 9 Sudoeste 0 -- -- 99
2021-01-21 00:00:00 11.7 3 Sur 10 Noroeste 0 -- -- 98
2021-01-20 23:00:00 11.8 4 Sudeste 13 Norte 0 -- -- 98
2021-01-20 22:00:00 11.5 3 Este 17 Norte 0 -- -- 96
2021-01-20 21:00:00 11.4 4 Nordeste 10 Nordeste 0 -- -- 92
2021-01-20 20:00:00 11.4 4 Noroeste 12 Norte 0 -- -- 90
2021-01-20 19:00:00 11.3 3 Nordeste 8 Noroeste 0 -- -- 87
2021-01-20 18:00:00 15.7 5 Norte 11 Norte 0 -- -- 70
2021-01-20 17:00:00 16.4 5 Norte 12 Sur 0 -- -- 70
2021-01-20 16:00:00 17.1 6 Sur 17 Sur 0 -- -- 73
2021-01-20 15:00:00 16.2 5 Sur 12 Sudoeste 0 -- -- 76
2021-01-20 14:00:00 16.3 4 Sur 15 Sur 0 -- -- 76
2021-01-20 13:00:00 15.6 6 Sur 14 Sur 0 -- -- 82
2021-01-20 12:00:00 14.3 5 Nordeste 15 Sur 0 -- -- 79
2021-01-20 11:00:00 16.2 11 Sur 17 Sudeste 0 -- -- 74
2021-01-20 10:00:00 14.1 9 Sur 13 Sudeste 0 -- -- 80
2021-01-20 09:00:00 10.9 3 Oeste 8 Sudoeste 0 -- -- 90
2021-01-20 08:00:00 8.6 5 Oeste 11 Noroeste 0 -- -- 89
2021-01-20 07:00:00 9.2 10 Noroeste 27 Norte 0 -- -- 96
2021-01-20 06:00:00 9.3 17 Noroeste 28 Noroeste 0 -- -- 96
2021-01-20 05:00:00 9.4 12 Noroeste 22 Noroeste 0 -- -- 92
2021-01-20 04:00:00 9.2 8 Noroeste 21 Norte 0 -- -- 79
2021-01-20 03:00:00 9.3 5 Oeste 24 Noroeste 0 -- -- 88
2021-01-20 02:00:00 9.2 10 Noroeste 22 Noroeste 0 -- -- 93
2021-01-20 01:00:00 9.2 8 Noroeste 23 Norte 0 -- -- 99
2021-01-20 00:00:00 9.8 18 Norte 26 Norte 0 -- -- 98
2021-01-19 23:00:00 9.7 17 Norte 24 Noroeste 0 -- -- 98
2021-01-19 22:00:00 9.4 14 Norte 17 Noroeste 0 -- -- 99
2021-01-19 21:00:00 9.9 4 Norte 8 Norte 0 -- -- 98
2021-01-19 20:00:00 10.1 4 Nordeste 6 Norte 0 -- -- 96
2021-01-19 19:00:00 10.4 4 Nordeste 7 Nordeste 0 -- -- 89
2021-01-19 18:00:00 14.7 3 Sur 8 Norte 0 -- -- 78
2021-01-19 17:00:00 15.9 4 Norte 12 Sur 0 -- -- 73
2021-01-19 16:00:00 16.9 3 Sur 15 Sur 0 -- -- 74
2021-01-19 15:00:00 17.1 10 Sur 22 Sudeste 0 -- -- 75
2021-01-19 14:00:00 17.6 9 Sur 21 Sur 0 -- -- 69
2021-01-19 13:00:00 16.8 10 Sur 17 Sudoeste 0 -- -- 68
2021-01-19 12:00:00 16.6 3 Norte 10 Noroeste 0 -- -- 65
2021-01-19 11:00:00 16.2 3 Norte 13 Sur 0 -- -- 58
2021-01-19 10:00:00 13.1 6 Sudoeste 8 Sudoeste 0 -- -- 70
2021-01-19 09:00:00 10 3 Oeste 10 Nordeste 0 -- -- 96
2021-01-19 08:00:00 8.7 5 Sudoeste 9 Oeste 0 -- -- 95
2021-01-19 07:00:00 8.8 3 Sur 9 Sudoeste 0 -- -- 100
2021-01-19 06:00:00 9.3 4 Este 9 Norte 0 -- -- 99
2021-01-19 05:00:00 8.9 10 Noroeste 13 Norte 0 -- -- 99
2021-01-19 04:00:00 9.2 5 Norte 11 Norte 0 -- -- 98
2021-01-19 03:00:00 8.8 2 Sudeste 10 Oeste 0 -- -- 97
2021-01-19 02:00:00 9.3 7 Sudoeste 10 Sudoeste 0 -- -- 94
2021-01-19 01:00:00 10.5 3 Este 9 Sudeste 0 -- -- 94
2021-01-19 00:00:00 10.5 3 Sudeste 9 Nordeste 0 -- -- 92
2021-01-18 23:00:00 10.6 3 Sudoeste 8 Nordeste 0 -- -- 92
2021-01-18 22:00:00 10.8 2 Sudoeste 9 Norte 0 -- -- 94
2021-01-18 21:00:00 10.7 3 Sudoeste 9 Sudeste 0 -- -- 94
2021-01-18 20:00:00 11.2 3 Nordeste 8 Nordeste 0 -- -- 94
2021-01-18 19:00:00 12 2 Sudeste 6 Sudeste 0 -- -- 92
2021-01-18 18:00:00 13.4 3 Norte 12 Noroeste 0 -- -- 81
2021-01-18 17:00:00 16.2 6 Sudeste 13 Sur 0 -- -- 72
2021-01-18 16:00:00 16.8 7 Sur 15 Sur 0 -- -- 72
2021-01-18 15:00:00 17.9 5 Sur 14 Norte 0 -- -- 69
2021-01-18 14:00:00 17.4 5 Norte 15 Norte 0 -- -- 70
2021-01-18 13:00:00 15.4 4 Nordeste 13 Nordeste 0 -- -- 71
2021-01-18 12:00:00 15.4 5 Norte 14 Nordeste 0 -- -- 74
2021-01-18 11:00:00 15.8 6 Norte 18 Norte 0 -- -- 72
2021-01-18 10:00:00 14.4 7 Norte 12 Norte 0 -- -- 80
2021-01-18 09:00:00 10.6 4 Nordeste 15 Sudoeste 0 -- -- 96
2021-01-18 08:00:00 8.5 4 Sudoeste 12 Sudoeste 0 -- -- 96
2021-01-18 07:00:00 9 3 Sudoeste 15 Sudoeste 0 -- -- 96
2021-01-18 06:00:00 9 3 Oeste 12 Sudoeste 0 -- -- 96
2021-01-18 05:00:00 9.7 2 Este 6 Oeste 0 -- -- 96
2021-01-18 04:00:00 9.7 3 Oeste 9 Este 0 -- -- 95
2021-01-18 03:00:00 10.3 3 Nordeste 13 Norte 0 -- -- 96
2021-01-18 02:00:00 10.5 3 Norte 9 Este 0 -- -- 95
2021-01-18 01:00:00 10 4 Sudoeste 14 Este 0 -- -- 95
2021-01-18 00:00:00 10.9 4 Este 11 Este 0 -- -- 95
2021-01-17 23:00:00 10.7 3 Sudoeste 12 Sudeste 0 -- -- 94
2021-01-17 22:00:00 11.2 2 Este 11 Nordeste 0 -- -- 95
2021-01-17 21:00:00 11.1 5 Este 14 Nordeste 0 -- -- 95
2021-01-17 20:00:00 11.3 6 Este 13 Este 0 -- -- 95
2021-01-17 19:00:00 11.3 4 Este 13 Este 0 -- -- 94
2021-01-17 18:00:00 12 3 Sudeste 9 Norte 0 -- -- 89
2021-01-17 17:00:00 12.6 3 Este 11 Sudoeste 0 -- -- 85
2021-01-17 16:00:00 13.6 3 Sudoeste 12 Oeste 0 -- -- 82
2021-01-17 15:00:00 13.9 5 Oeste 13 Sudeste 0 -- -- 80
2021-01-17 14:00:00 13.9 4 Sudeste 15 Norte 0 -- -- 78
2021-01-17 13:00:00 15.7 6 Nordeste 18 Norte 0 -- -- 71
2021-01-17 12:00:00 15.1 4 Nordeste 10 Nordeste 0 -- -- 66
2021-01-17 11:00:00 16 6 Noroeste 14 Norte 0 -- -- 70
2021-01-17 10:00:00 12.8 5 Nordeste 17 Este 0 -- -- 78
2021-01-17 09:00:00 11.4 7 Sudeste 18 Sudeste 0 -- -- 86
2021-01-17 08:00:00 9.6 9 Sudeste 17 Sudeste 0 -- -- 90
2021-01-17 07:00:00 10.2 4 Sudeste 15 Nordeste 0 -- -- 89
2021-01-17 06:00:00 10.3 6 Sudeste 14 Sudeste 0 -- -- 89
2021-01-17 05:00:00 10.4 4 Sudeste 20 Sudeste 0 -- -- 89
2021-01-17 04:00:00 10.6 6 Sudoeste 21 Sudeste 0 -- -- 89
2021-01-17 03:00:00 10.7 5 Sudeste 14 Nordeste 0 -- -- 87
2021-01-17 02:00:00 10.8 4 Sudeste 16 Este 0 -- -- 90
2021-01-17 01:00:00 10.7 6 Sudeste 18 Sudeste 0 -- -- 87
2021-01-17 00:00:00 10.7 6 Sudeste 18 Este 0 -- -- 86
2021-01-16 23:00:00 10.7 5 Sur 22 Sur 0 -- -- 86
2021-01-16 22:00:00 10.9 6 Sudeste 18 Sur 0 -- -- 88
2021-01-16 21:00:00 11.1 8 Sudeste 26 Sudeste 0 -- -- 94
2021-01-16 20:00:00 11.3 6 Sudeste 30 Nordeste 0 -- -- 96
2021-01-16 19:00:00 11.4 12 Sudeste 27 Este 0 -- -- 95
2021-01-16 18:00:00 11.5 10 Sudeste 24 Este 0 -- -- 98
2021-01-16 17:00:00 11.8 8 Sudeste 23 Sudeste 0 -- -- 97
2021-01-16 16:00:00 12.1 9 Sur 24 Sudeste 0 -- -- 94
2021-01-16 15:00:00 14.1 4 Este 17 Este 0 -- -- 82
2021-01-16 14:00:00 16.5 4 Sudeste 16 Sudeste 0 -- -- 63
2021-01-16 13:00:00 16.4 6 Sur 15 Sudeste 0 -- -- 61
2021-01-16 12:00:00 16 6 Sudeste 23 Sudeste 0 -- -- 62
2021-01-16 11:00:00 15.1 9 Sudeste 27 Sudeste 0 -- -- 69
2021-01-16 10:00:00 11.8 7 Sudeste 19 Sudeste 0 -- -- 83
2021-01-16 09:00:00 10.7 9 Sudeste 23 Este 0 -- -- 87
2021-01-16 08:00:00 10.2 7 Sudeste 20 Este 0 -- -- 88
2021-01-16 07:00:00 10 8 Sudeste 20 Sudeste 0 -- -- 86
2021-01-16 06:00:00 9.9 6 Este 16 Este 0 -- -- 83
2021-01-16 05:00:00 10.1 6 Sudeste 19 Este 0 -- -- 89
2021-01-16 04:00:00 10.2 8 Sudeste 26 Sudeste 0 -- -- 83
2021-01-16 03:00:00 10.2 8 Sudeste 25 Sudeste 0 -- -- 85
2021-01-16 02:00:00 10.3 11 Sudeste 28 Este 0 -- -- 88
2021-01-16 01:00:00 10.4 8 Sudeste 27 Sudeste 0 -- -- 91
2021-01-16 00:00:00 10.5 8 Sudeste 27 Sudeste 0 -- -- 85
2021-01-15 23:00:00 10.5 12 Sudeste 27 Sudeste 0 -- -- 86
2021-01-15 22:00:00 10.7 9 Sudeste 28 Sudeste 0 -- -- 89
2021-01-15 21:00:00 10.8 11 Sudeste 27 Nordeste 0 -- -- 88
2021-01-15 20:00:00 10.7 8 Sudeste 25 Este 0 -- -- 92
2021-01-15 19:00:00 10.8 11 Sudeste 28 Sudeste 0 -- -- 93
2021-01-15 18:00:00 11 12 Sudeste 26 Sur 0 -- -- 83
2021-01-15 17:00:00 11.3 8 Sudeste 22 Este 0 -- -- 89
2021-01-15 16:00:00 11.6 8 Este 28 Este 0 -- -- 82
2021-01-15 15:00:00 11.5 9 Sudeste 23 Sur 0 -- -- 91
2021-01-15 14:00:00 12.4 7 Sudeste 17 Sudeste 0 -- -- 82
2021-01-15 13:00:00 12.8 6 Sudeste 20 Sudeste 0 -- -- 77
2021-01-15 12:00:00 12 7 Sudeste 18 Sudeste 0 -- -- 79
2021-01-15 11:00:00 10.6 10 Sudeste 24 Sudeste 0 -- -- 79
2021-01-15 10:00:00 10.6 6 Sudeste 22 Este 0 -- -- 79
2021-01-15 09:00:00 10.2 8 Este 23 Este 0 -- -- 85
2021-01-15 08:00:00 9.9 9 Sudeste 26 Este 0 -- -- 81
2021-01-15 07:00:00 9.8 9 Sudeste 32 Nordeste 0 -- -- 83
2021-01-15 06:00:00 9.6 10 Este 34 Este 0 -- -- 83
2021-01-15 05:00:00 10.1 12 Este 35 Nordeste 0 -- -- 90
2021-01-15 04:00:00 10.3 12 Sudeste 29 Este 0 -- -- 88
2021-01-15 03:00:00 10.3 10 Este 31 Este 0 -- -- 96
2021-01-15 02:00:00 10.5 11 Este 28 Nordeste 0 -- -- 89
2021-01-15 01:00:00 9.8 9 Este 28 Este 0 -- -- 86
2021-01-15 00:00:00 9.8 8 Este 25 Este 0 -- -- 87
2021-01-14 23:00:00 10.5 9 Sudeste 26 Este 0 -- -- 91
2021-01-14 22:00:00 10.5 8 Sudeste 26 Este 0 -- -- 90
2021-01-14 21:00:00 10.8 10 Sudeste 26 Sudeste 0 -- -- 93
2021-01-14 20:00:00 10.5 8 Sudeste 24 Sudeste 0 -- -- 90
2021-01-14 19:00:00 10.6 6 Sudeste 22 Este 0 -- -- 87
2021-01-14 18:00:00 11.9 9 Sudeste 24 Sudeste 0 -- -- 75
2021-01-14 17:00:00 12.1 9 Sudeste 26 Sudeste 0 -- -- 73
2021-01-14 16:00:00 13 8 Sudeste 22 Este 0 -- -- 75
2021-01-14 15:00:00 12.1 10 Sudeste 24 Sudeste 0 -- -- 85
2021-01-14 14:00:00 11.9 7 Sudeste 17 Este 0 -- -- 87
2021-01-14 13:00:00 12.8 5 Sudeste 18 Sudeste 0 -- -- 83
2021-01-14 12:00:00 12 5 Sudeste 16 Sudeste 0 -- -- 86
2021-01-14 11:00:00 11.4 5 Sudeste 17 Este 0 -- -- 89
2021-01-14 10:00:00 11.2 3 Sur 15 Sudeste 0 -- -- 88
2021-01-14 09:00:00 12 5 Sur 14 Sudeste 0 -- -- 87
2021-01-14 08:00:00 9.7 8 Sudeste 14 Sudeste 0 -- -- 94
2021-01-14 07:00:00 9.8 3 Sudeste 12 Sudeste 0 -- -- 91
2021-01-14 06:00:00 9.7 4 Este 16 Nordeste 0 -- -- 86
2021-01-14 05:00:00 9.7 4 Sudeste 17 Sudeste 0 -- -- 88
2021-01-14 04:00:00 9.9 6 Sudeste 17 Este 0 -- -- 85
2021-01-14 03:00:00 10.1 6 Sudeste 18 Sudeste 0 -- -- 87
2021-01-14 02:00:00 10.1 8 Sudeste 22 Este 0 -- -- 85
2021-01-14 01:00:00 9.8 9 Este 24 Este 0 -- -- 84
2021-01-14 00:00:00 9.7 5 Sudeste 22 Sudeste 0 -- -- 86
2021-01-13 23:00:00 9.8 9 Sudeste 19 Sudeste 0 -- -- 90
2021-01-13 22:00:00 10.3 5 Sudoeste 16 Sudeste 0 -- -- 87
2021-01-13 21:00:00 10.1 6 Sur 18 Este 0 -- -- 86
2021-01-13 20:00:00 10 6 Sur 21 Sudeste 0 -- -- 88
2021-01-13 19:00:00 10 8 Sudeste 19 Este 0 -- -- 87
2021-01-13 18:00:00 10.2 7 Sudeste 22 Sudeste 0 -- -- 88
2021-01-13 17:00:00 10.7 8 Sur 24 Este 0 -- -- 89
2021-01-13 16:00:00 11.2 9 Sudeste 27 Sudeste 0 -- -- 86
2021-01-13 15:00:00 11.5 8 Sudeste 25 Este 0 -- -- 89
2021-01-13 14:00:00 10.9 10 Sudeste 28 Sudeste 0 -- -- 92
2021-01-13 13:00:00 10.7 13 Sudeste 27 Nordeste 0 -- -- 97
2021-01-13 12:00:00 10.7 10 Sudeste 29 Este 0 -- -- 98
2021-01-13 11:00:00 10.6 10 Este 26 Sudeste 0 -- -- 97
2021-01-13 10:00:00 11.1 8 Sudeste 23 Este 0 -- -- 92
2021-01-13 09:00:00 10.1 8 Sudeste 21 Este 0 -- -- 97
2021-01-13 08:00:00 10.3 12 Este 24 Este 0 -- -- 94
2021-01-13 07:00:00 9.6 6 Sur 17 Este 0 -- -- 89
2021-01-13 06:00:00 10 7 Sudeste 20 Sudeste 0 -- -- 95
2021-01-13 05:00:00 10 6 Sudeste 31 Este 0 -- -- 91
2021-01-13 04:00:00 10.1 10 Este 27 Este 0 -- -- 87
2021-01-13 03:00:00 10.1 9 Sudeste 27 Norte 0 -- -- 98
2021-01-13 02:00:00 10.4 10 Sudeste 28 Nordeste 0 -- -- 98
2021-01-13 01:00:00 10.3 9 Sudeste 23 Sudeste 0 -- -- 97
2021-01-13 00:00:00 10.4 7 Sudeste 22 Sudeste 0 -- -- 96
2021-01-12 23:00:00 10 5 Sudeste 24 Sudeste 0 -- -- 96
2021-01-12 22:00:00 10.2 6 Este 22 Este 0 -- -- 96
2021-01-12 21:00:00 10.2 7 Sudeste 20 Sudeste 0 -- -- 95
2021-01-12 20:00:00 10.1 4 Sur 15 Este 0 -- -- 95
2021-01-12 19:00:00 10.3 4 Sur 15 Sur 0 -- -- 95
2021-01-12 18:00:00 10.5 5 Sudeste 14 Este 0 -- -- 91
2021-01-12 17:00:00 11.1 5 Sudeste 18 Sudeste 0 -- -- 89
2021-01-12 16:00:00 11.8 5 Sur 14 Nordeste 0 -- -- 84
2021-01-12 15:00:00 11.7 8 Sudeste 18 Este 0 -- -- 89
2021-01-12 14:00:00 13.1 10 Sur 18 Sudeste 0 -- -- 82
2021-01-12 13:00:00 11.3 6 Sur 19 Sudeste 0 -- -- 85
2021-01-12 12:00:00 11.1 5 Sudeste 23 Este 0 -- -- 95
2021-01-12 11:00:00 10.5 5 Sur 18 Sudeste 0 -- -- 95
2021-01-12 10:00:00 9.6 5 Sur 12 Sudeste 0 -- -- 95
2021-01-12 09:00:00 9.2 4 Sudoeste 9 Sur 0 -- -- 97
2021-01-12 08:00:00 9 5 Sudeste 23 Sudeste 0 -- -- 97
2021-01-12 07:00:00 9.4 6 Sudeste 15 Nordeste 0 -- -- 96
2021-01-12 06:00:00 9.2 4 Este 15 Sudeste 0 -- -- 91
2021-01-12 05:00:00 9.4 4 Este 15 Este 0 -- -- 90
2021-01-12 04:00:00 9.2 5 Este 15 Este 0 -- -- 93
2021-01-12 03:00:00 9 6 Sudeste 18 Este 0 -- -- 97
2021-01-12 02:00:00 9.5 8 Este 25 Sudeste 0 -- -- 95
2021-01-12 01:00:00 9.5 4 Sudeste 18 Este 0 -- -- 93
2021-01-12 00:00:00 9.6 10 Este 26 Sudeste 0 -- -- 94
2021-01-11 23:00:00 9.6 5 Sudeste 18 Sudeste 0 -- -- 87
2021-01-11 22:00:00 9.3 4 Sur 17 Sudeste 0 -- -- 88
2021-01-11 21:00:00 9.7 7 Sur 17 Sudeste 0 -- -- 85
2021-01-11 20:00:00 9.5 7 Sur 20 Nordeste 0 -- -- 85
2021-01-11 19:00:00 9.9 7 Sudeste 18 Sudeste 0 -- -- 83
2021-01-11 18:00:00 10.2 6 Sudeste 17 Este 0 -- -- 81
2021-01-11 17:00:00 10.9 8 Sudeste 21 Este 0 -- -- 76
2021-01-11 16:00:00 13 8 Sudeste 17 Este 0 -- -- 62
2021-01-11 15:00:00 13.9 6 Sudeste 21 Sudeste 0 -- -- 60
2021-01-11 14:00:00 14.1 8 Sudeste 27 Sudeste 0 -- -- 65
2021-01-11 13:00:00 11.8 8 Sur 27 Nordeste 0 -- -- 74
2021-01-11 12:00:00 12.1 8 Sur 21 Sudeste 0 -- -- 72
2021-01-11 11:00:00 11.8 8 Sudoeste 21 Sudeste 0 -- -- 76
2021-01-11 10:00:00 10.1 8 Sur 21 Este 0 -- -- 85
2021-01-11 09:00:00 9.1 8 Sur 22 Este 0 -- -- 95
2021-01-11 08:00:00 8.6 10 Sudoeste 17 Nordeste 0 -- -- 96
2021-01-11 07:00:00 9.2 6 Sur 18 Este 0 -- -- 91
2021-01-11 06:00:00 9.2 8 Sur 33 Sur 0 -- -- 94
2021-01-11 05:00:00 9.4 9 Sur 22 Sur 0 -- -- 90
2021-01-11 04:00:00 9.5 8 Sudoeste 28 Sudoeste 0 -- -- 95
2021-01-11 03:00:00 9.1 9 Sudoeste 26 Sudeste 0 -- -- 99
2021-01-11 02:00:00 9.9 11 Sur 25 Sudeste 0 -- -- 99
2021-01-11 01:00:00 9.7 9 Sudoeste 42 Este 0.2 -- -- 99
2021-01-11 00:00:00 9.9 10 Sudoeste 28 Sudeste 0 -- -- 93
2021-01-10 23:00:00 10.1 11 Sudoeste 36 Sur 0 -- -- 84
2021-01-10 22:00:00 9.7 10 Sudoeste 34 Sudoeste 0 -- -- 88
2021-01-10 21:00:00 9.7 9 Sudoeste 44 Nordeste 0 -- -- 82
2021-01-10 20:00:00 10.1 14 Oeste 48 Nordeste 0 -- -- 93
2021-01-10 19:00:00 10 14 Este 42 Nordeste 0.2 -- -- 95
2021-01-10 18:00:00 10.1 10 Nordeste 43 Norte 0 -- -- 95
2021-01-10 17:00:00 10.4 11 Nordeste 41 Este 0 -- -- 95
2021-01-10 16:00:00 10 11 Nordeste 34 Nordeste 1 -- -- 97
2021-01-10 15:00:00 10.6 11 Sur 37 Sudeste 0 -- -- 92
2021-01-10 14:00:00 11 9 Oeste 36 Nordeste 0 -- -- 90
2021-01-10 13:00:00 10.8 8 Sur 31 Este 0.2 -- -- 96
2021-01-10 12:00:00 12 12 Nordeste 34 Nordeste 0 -- -- 77
2021-01-10 11:00:00 10.9 9 Norte 32 Norte 0 -- -- 87
2021-01-10 10:00:00 9.8 12 Este 33 Este 0 -- -- 94
2021-01-10 09:00:00 8.4 11 Nordeste 35 Nordeste 0.8 -- -- 98
2021-01-10 08:00:00 9.2 7 Norte 29 Sudeste 0 -- -- 89
2021-01-10 07:00:00 8.9 10 Nordeste 33 Este 0.4 -- -- 94
2021-01-10 06:00:00 9.6 9 Nordeste 43 Nordeste 0 -- -- 88
2021-01-10 05:00:00 9.6 9 Norte 35 Este 0 -- -- 88
2021-01-10 04:00:00 9.6 11 Nordeste 37 Nordeste 0 -- -- 80
2021-01-10 03:00:00 9.7 10 Sudeste 35 Este 0 -- -- 84
2021-01-10 02:00:00 9.4 9 Sur 28 Norte 0 -- -- 92
2021-01-10 01:00:00 8.5 7 Oeste 35 Sudeste 0 -- -- 93
2021-01-10 00:00:00 9.6 10 Sur 36 Norte 0 -- -- 80
2021-01-09 23:00:00 9.7 8 Sudoeste 27 Norte 0 -- -- 88
2021-01-09 22:00:00 9 8 Sudoeste 25 Sudoeste 0 -- -- 89
2021-01-09 21:00:00 9.1 8 Sudoeste 29 Sudoeste 0 -- -- 85
2021-01-09 20:00:00 9 9 Sudoeste 23 Sudoeste 0 -- -- 82
2021-01-09 19:00:00 8.6 8 Sudoeste 26 Sudeste 0 -- -- 84
2021-01-09 18:00:00 9.3 9 Sur 23 Sur 0 -- -- 89
2021-01-09 17:00:00 9.5 10 Sudoeste 30 Sudeste 0 -- -- 87
2021-01-09 16:00:00 9.8 12 Sudeste 36 Nordeste 0 -- -- 84
2021-01-09 15:00:00 9.7 12 Sudoeste 48 Nordeste 0 -- -- 83
2021-01-09 14:00:00 9.5 8 Sudoeste 49 Nordeste 2 -- -- 91
2021-01-09 13:00:00 10 10 Nordeste 39 Norte 0 -- -- 85
2021-01-09 12:00:00 10.4 13 Nordeste 41 Nordeste 0 -- -- 79
2021-01-09 11:00:00 9.8 13 Este 36 Norte 0 -- -- 86
2021-01-09 10:00:00 8.8 12 Sur 49 Nordeste 0.8 -- -- 93
2021-01-09 09:00:00 8.4 13 Norte 36 Norte 1.4 -- -- 93
2021-01-09 08:00:00 8.4 10 Noroeste 28 Norte 0.4 -- -- 89
2021-01-09 07:00:00 8.7 12 Norte 36 Norte 0 -- -- 83
2021-01-09 06:00:00 9.1 6 Sur 30 Noroeste 0 -- -- 87
2021-01-09 05:00:00 8 9 Norte 39 Norte 0 -- -- 94
2021-01-09 04:00:00 9.1 7 Norte 33 Norte 0 -- -- 88
2021-01-09 03:00:00 9 12 Norte 43 Nordeste 0 -- -- 83
2021-01-09 02:00:00 9.3 8 Nordeste 34 Norte 0 -- -- 91
2021-01-09 01:00:00 9.5 9 Norte 29 Norte 0 -- -- 91
2021-01-09 00:00:00 9.4 6 Norte 23 Norte 0 -- -- 97
2021-01-08 23:00:00 9.4 12 Nordeste 36 Este 0 -- -- 98
2021-01-08 22:00:00 9.2 7 Este 35 Nordeste 1.2 -- -- 97
2021-01-08 21:00:00 9.9 10 Norte 34 Nordeste 0 -- -- 86
2021-01-08 20:00:00 9.6 6 Oeste 29 Noroeste 0 -- -- 94
2021-01-08 19:00:00 9.8 13 Nordeste 41 Este 0 -- -- 98
2021-01-08 18:00:00 9.9 9 Nordeste 29 Norte 0 -- -- 98
2021-01-08 17:00:00 9.5 8 Norte 38 Norte 0.2 -- -- 99
2021-01-08 16:00:00 9.7 10 Norte 32 Norte 1.8 -- -- 96
2021-01-08 15:00:00 10.4 7 Este 28 Norte 0 -- -- 98
2021-01-08 14:00:00 10.6 9 Norte 33 Norte 0 -- -- 100
2021-01-08 13:00:00 10.5 9 Noroeste 33 Nordeste 0 -- -- 100
2021-01-08 12:00:00 10.7 8 Noroeste 32 Norte 0 -- -- 100
2021-01-08 11:00:00 10.7 13 Norte 40 Norte 0.2 -- -- 100
2021-01-08 10:00:00 10.8 12 Norte 36 Nordeste 0 -- -- 100
2021-01-08 09:00:00 10.5 14 Nordeste 38 Norte 0 -- -- 100
2021-01-08 08:00:00 10.7 17 Nordeste 46 Norte 0.4 -- -- 100
2021-01-08 07:00:00 11.5 17 Nordeste 49 Nordeste 0 -- -- 100
2021-01-08 06:00:00 11.4 15 Nordeste 42 Nordeste 0.2 -- -- 100
2021-01-08 05:00:00 11.9 16 Norte 37 Norte 5 -- -- 100
2021-01-08 04:00:00 11.8 15 Noroeste 45 Noroeste 0 -- -- 98
2021-01-08 03:00:00 12.2 13 Noroeste 49 Noroeste 2.2 -- -- 99
2021-01-08 02:00:00 12.6 28 Noroeste 81 Noroeste 0.8 -- -- 96
2021-01-08 01:00:00 12.9 43 Noroeste 73 Noroeste 0.2 -- -- 92
2021-01-08 00:00:00 12.9 41 Noroeste 69 Noroeste 0.2 -- -- 97
2021-01-07 23:00:00 13.2 38 Noroeste 67 Noroeste 1.6 -- -- 98
2021-01-07 22:00:00 13.6 23 Noroeste 64 Noroeste 2 -- -- 97
2021-01-07 21:00:00 13.7 30 Noroeste 59 Noroeste 1.6 -- -- 96
2021-01-07 20:00:00 14.7 36 Oeste 68 Noroeste 1.4 -- -- 87
2021-01-07 19:00:00 14.5 37 Noroeste 66 Oeste 1.4 -- -- 93
2021-01-07 18:00:00 15.1 40 Oeste 76 Noroeste 0.2 -- -- 87
2021-01-07 17:00:00 14.1 41 Noroeste 84 Noroeste 1.6 -- -- 94
2021-01-07 16:00:00 16.1 46 Oeste 76 Noroeste 0 -- -- 79
2021-01-07 15:00:00 16.5 49 Noroeste 91 Oeste 0 -- -- 77
2021-01-07 14:00:00 16.8 48 Noroeste 79 Noroeste 0.2 -- -- 74
2021-01-07 13:00:00 16 48 Noroeste 89 Noroeste 0 -- -- 80
2021-01-07 12:00:00 16 42 Noroeste 83 Oeste 0 -- -- 81
2021-01-07 11:00:00 15.8 51 Oeste 77 Oeste 1 -- -- 85
2021-01-07 10:00:00 15.6 48 Noroeste 79 Noroeste 0 -- -- 86
2021-01-07 09:00:00 14.5 40 Noroeste 84 Noroeste 3.8 -- -- 96
2021-01-07 08:00:00 14.5 33 Noroeste 64 Oeste 1.4 -- -- 91
2021-01-07 07:00:00 14.6 39 Noroeste 71 Noroeste 2.2 -- -- 93
2021-01-07 06:00:00 14.8 37 Oeste 68 Oeste 2 -- -- 96
2021-01-07 05:00:00 14.6 27 Oeste 46 Noroeste 3.4 -- -- 97
2021-01-07 04:00:00 14.4 24 Oeste 42 Oeste 0.4 -- -- 94
2021-01-07 03:00:00 14.6 16 Oeste 39 Noroeste 0 -- -- 87
2021-01-07 02:00:00 14.8 21 Oeste 38 Oeste 0 -- -- 86
2021-01-07 01:00:00 15.1 24 Oeste 48 Noroeste 0 -- -- 81
2021-01-07 00:00:00 14.9 15 Noroeste 37 Oeste 0 -- -- 91
2021-01-06 23:00:00 14.4 17 Oeste 47 Noroeste 0.4 -- -- 94
2021-01-06 22:00:00 14.2 25 Noroeste 40 Oeste 0.6 -- -- 94
2021-01-06 21:00:00 15.1 15 Noroeste 32 Noroeste 0 -- -- 91
2021-01-06 20:00:00 15.4 16 Oeste 42 Noroeste 0 -- -- 87
2021-01-06 19:00:00 15.2 17 Noroeste 37 Noroeste 0 -- -- 88
2021-01-06 18:00:00 15.4 12 Oeste 38 Noroeste 0 -- -- 88
2021-01-06 17:00:00 16.4 19 Oeste 45 Noroeste 0 -- -- 87
2021-01-06 16:00:00 17.7 14 Oeste 48 Noroeste 0 -- -- 79
2021-01-06 15:00:00 16.1 25 Oeste 49 Oeste 0 -- -- 87
2021-01-06 14:00:00 17.8 14 Oeste 46 Noroeste 0 -- -- 74
2021-01-06 13:00:00 16.8 31 Noroeste 65 Oeste 0 -- -- 75
2021-01-06 12:00:00 17 37 Noroeste 72 Noroeste 0 -- -- 78
2021-01-06 11:00:00 15.3 30 Noroeste 75 Oeste 2 -- -- 95
2021-01-06 10:00:00 15.6 35 Noroeste 70 Oeste 2.4 -- -- 97
2021-01-06 09:00:00 15.3 33 Noroeste 64 Noroeste 1.8 -- -- 96
2021-01-06 08:00:00 15.3 34 Noroeste 68 Oeste 2.8 -- -- 96
2021-01-06 07:00:00 15 33 Oeste 73 Noroeste 2.6 -- -- 93
2021-01-06 06:00:00 14.8 22 Noroeste 54 Noroeste 0.6 -- -- 96
2021-01-06 05:00:00 15.3 27 Oeste 62 Sudoeste 0.2 -- -- 91
2021-01-06 04:00:00 15.4 26 Oeste 58 Noroeste 0 -- -- 86
2021-01-06 03:00:00 15.3 25 Noroeste 55 Oeste 0 -- -- 81
2021-01-06 02:00:00 15.3 25 Oeste 49 Oeste 0 -- -- 75
2021-01-06 01:00:00 14.8 18 Noroeste 32 Oeste 0 -- -- 85
2021-01-06 00:00:00 14.4 17 Oeste 32 Oeste 0 -- -- 90
2021-01-05 23:00:00 14.2 14 Sudoeste 33 Noroeste 0 -- -- 88
2021-01-05 22:00:00 14.3 20 Noroeste 35 Oeste 0 -- -- 87
2021-01-05 21:00:00 14.6 25 Oeste 41 Noroeste 0 -- -- 84
2021-01-05 20:00:00 14.3 22 Noroeste 38 Oeste 0 -- -- 86
2021-01-05 19:00:00 14.3 24 Noroeste 37 Noroeste 0 -- -- 90
2021-01-05 18:00:00 14.7 24 Noroeste 35 Noroeste 0 -- -- 88
2021-01-05 17:00:00 15.2 17 Noroeste 28 Noroeste 0 -- -- 90
2021-01-05 16:00:00 15.4 9 Oeste 24 Oeste 0.6 -- -- 96
2021-01-05 15:00:00 17 16 Noroeste 30 Noroeste 0 -- -- 82
2021-01-05 14:00:00 18.1 14 Oeste 30 Oeste 0 -- -- 77
2021-01-05 13:00:00 19.6 14 Noroeste 28 Oeste 0 -- -- 73
2021-01-05 12:00:00 18.5 18 Noroeste 28 Oeste 0 -- -- 75
2021-01-05 11:00:00 18.9 11 Noroeste 29 Noroeste 0 -- -- 73
2021-01-05 10:00:00 16.3 19 Noroeste 32 Noroeste 0 -- -- 81
2021-01-05 09:00:00 14.9 20 Noroeste 32 Noroeste 0 -- -- 90
2021-01-05 08:00:00 13.8 21 Noroeste 38 Noroeste 0 -- -- 91
2021-01-05 07:00:00 13.9 23 Noroeste 37 Noroeste 0 -- -- 91
2021-01-05 06:00:00 13.7 19 Oeste 30 Noroeste 0 -- -- 92
2021-01-05 05:00:00 13.9 19 Oeste 33 Oeste 0 -- -- 90
2021-01-05 04:00:00 13.9 11 Oeste 26 Oeste 0 -- -- 91
2021-01-05 03:00:00 13.9 15 Oeste 28 Oeste 0 -- -- 89
2021-01-05 02:00:00 14.2 17 Oeste 27 Oeste 0 -- -- 90
2021-01-05 01:00:00 14 17 Oeste 31 Oeste 0 -- -- 88
2021-01-05 00:00:00 14.1 20 Noroeste 34 Noroeste 0 -- -- 91
2021-01-04 23:00:00 13.9 14 Noroeste 36 Noroeste 0 -- -- 89
2021-01-04 22:00:00 14.7 16 Noroeste 36 Noroeste 0 -- -- 81
2021-01-04 21:00:00 15.4 20 Noroeste 43 Noroeste 0 -- -- 86
2021-01-04 20:00:00 15.3 16 Oeste 64 Oeste 0 -- -- 89
2021-01-04 19:00:00 15.5 36 Oeste 64 Oeste 0 -- -- 87
2021-01-04 18:00:00 15.8 24 Oeste 66 Oeste 0 -- -- 76
2021-01-04 17:00:00 15.9 22 Oeste 53 Oeste 0 -- -- 78
2021-01-04 16:00:00 15.8 22 Oeste 58 Oeste 0 -- -- 82
2021-01-04 15:00:00 16.8 21 Sudoeste 52 Sur 0 -- -- 75
2021-01-04 14:00:00 16.3 32 Sudoeste 59 Sudoeste 0 -- -- 79
2021-01-04 13:00:00 15.9 25 Sudoeste 47 Sudoeste 0 -- -- 79
2021-01-04 12:00:00 18.7 25 Oeste 39 Noroeste 0 -- -- 64
2021-01-04 11:00:00 18.7 26 Oeste 44 Oeste 0 -- -- 60
2021-01-04 10:00:00 18.2 29 Oeste 48 Oeste 0 -- -- 60
2021-01-04 09:00:00 17.3 24 Oeste 41 Noroeste 0 -- -- 61
2021-01-04 08:00:00 13.1 12 Sur 22 Sudoeste 0 -- -- 89
2021-01-04 07:00:00 15.3 12 Oeste 23 Oeste 0 -- -- 70
2021-01-04 06:00:00 16.1 12 Oeste 20 Oeste 0 -- -- 64
2021-01-04 05:00:00 15.8 11 Noroeste 40 Noroeste 0 -- -- 69
2021-01-04 04:00:00 17.1 26 Noroeste 54 Noroeste 0 -- -- 59
2021-01-04 03:00:00 14.2 7 Oeste 28 Oeste 0 -- -- 79
2021-01-04 02:00:00 12.7 14 Noroeste 33 Sur 0 -- -- 91
2021-01-04 01:00:00 12.4 10 Sur 31 Sudoeste 0 -- -- 92
2021-01-04 00:00:00 12.7 23 Sudoeste 31 Sudoeste 0 -- -- 89
2021-01-03 23:00:00 12 12 Sur 20 Sur 0 -- -- 94
2021-01-03 22:00:00 12.3 3 Oeste 23 Sudoeste 0 -- -- 91
2021-01-03 21:00:00 12 10 Sur 17 Noroeste 0 -- -- 93
2021-01-03 20:00:00 12.1 9 Sur 22 Sudeste 0 -- -- 93
2021-01-03 19:00:00 12.2 5 Sur 14 Nordeste 0 -- -- 91
2021-01-03 18:00:00 12.6 6 Norte 22 Sudoeste 0 -- -- 89
2021-01-03 17:00:00 12.5 16 Sur 28 Sudeste 0 -- -- 92
2021-01-03 16:00:00 13 12 Sur 22 Sur 0 -- -- 92
2021-01-03 15:00:00 14 10 Sur 23 Sudeste 0 -- -- 87
2021-01-03 14:00:00 14 14 Sudoeste 24 Sudoeste 0 -- -- 82
2021-01-03 13:00:00 13.6 8 Sur 18 Sur 0 -- -- 87
2021-01-03 12:00:00 13.3 10 Sudeste 18 Sur 0 -- -- 82
2021-01-03 11:00:00 11 9 Sudoeste 13 Sudoeste 0.2 -- -- 91
2021-01-03 10:00:00 10.9 6 Sudoeste 9 Sudoeste 0.2 -- -- 87
2021-01-03 09:00:00 11.1 4 Sur 8 Sudoeste 0 -- -- 82
2021-01-03 08:00:00 11 6 Sudoeste 18 Oeste 0 -- -- 80
2021-01-03 07:00:00 11.2 13 Oeste 18 Oeste 0 -- -- 79
2021-01-03 06:00:00 10.7 9 Noroeste 12 Noroeste 0 -- -- 87
2021-01-03 05:00:00 10.5 6 Noroeste 10 Noroeste 0 -- -- 84
2021-01-03 04:00:00 10.9 8 Noroeste 11 Noroeste 0 -- -- 83
2021-01-03 03:00:00 10.6 8 Noroeste 15 Noroeste 0 -- -- 89
2021-01-03 02:00:00 10.8 13 Noroeste 18 Noroeste 0 -- -- 90
2021-01-03 01:00:00 10.4 2 Oeste 6 Oeste 0 -- -- 94
2021-01-03 00:00:00 10.4 4 Sudoeste 5 Sudoeste 0 -- -- 93
2021-01-02 23:00:00 11 2 Noroeste 12 Norte 0 -- -- 93
2021-01-02 22:00:00 10.7 8 Norte 17 Norte 0 -- -- 94
2021-01-02 21:00:00 10 8 Norte 16 Noroeste 0 -- -- 94
2021-01-02 20:00:00 10 10 Norte 13 Norte 0 -- -- 92
2021-01-02 19:00:00 10.6 2 Sur 10 Este 0 -- -- 88
2021-01-02 18:00:00 11.9 4 Norte 12 Norte 0 -- -- 83
2021-01-02 17:00:00 12.9 3 Norte 10 Este 0 -- -- 81
2021-01-02 16:00:00 13.2 3 Sudeste 11 Noroeste 0 -- -- 79
2021-01-02 15:00:00 14.5 4 Norte 12 Nordeste 0 -- -- 74
2021-01-02 14:00:00 13.3 4 Norte 11 Noroeste 0 -- -- 79
2021-01-02 13:00:00 12.5 2 Este 14 Sudeste 0 -- -- 89